Savannah, Minnesota
Current Conditions -  °F | °C
As of 11:55 PM on Tuesday 21 Oct 2014 (Local Time) from KGPZ Reporting Station
Clear Clear  
Wind Chill: 32°   Ceiling: Unl
Heat Index: 37°   Visibility: 10mi
Dew Point: 34°   Wind: 7mph
Humidity: 87%   Direction: 130°SE
Pressure: 30.13"   Gusts: NA
Location:  47.3121°N, 93.3823°W
Report Text: KGPZ 220455Z AUTO 13006KT 10SM CLR 03/01 A3013 RMK AO1
Loading
Personal Weather Stations






























Interactive Weather Map
Tropical Storm Tracking
New forecast layout! Learn more

10-Day Weather Forecast

Advertisements
Track Severe Weather on mobile